Time;durP1;ratioP1;P1;durP2;ratioP2;P2;SDS_P1;SDS_P2;PMS_P1;PMS_P2;Temp;Humidity;BMP_temperature;BMP_pressure;BME280_temperature;BME280_humidity;BME280_pressure;Samples;Min_cycle;Max_cycle;Signal;HPM_P1;HPM_P2
2021/11/10 00:02:04;;;;;;;15.18;7.18;;;1.90;99.90;;;2.69;100.00;101488.28;5095996;28;20024;-78
2021/11/10 00:04:29;;;;;;;16.45;7.78;;;1.90;99.90;;;2.73;100.00;101486.56;5111698;28;20035;-81
2021/11/10 00:06:55;;;;;;;15.15;7.60;;;1.90;99.90;;;2.85;100.00;101467.75;5117268;28;20016;-80
2021/11/10 00:09:21;;;;;;;18.02;8.27;;;2.00;99.90;;;2.96;100.00;101469.31;5097023;28;20034;-81
2021/11/10 00:11:47;;;;;;;15.63;7.97;;;2.10;99.90;;;2.93;100.00;101471.81;5077289;28;20124;-81
2021/11/10 00:14:13;;;;;;;17.67;8.73;;;2.10;99.90;;;2.77;100.00;101460.06;5075875;28;20183;-81
2021/11/10 00:16:41;;;;;;;16.73;7.78;;;2.00;99.90;;;2.74;100.00;101452.38;5057438;28;20562;-81
2021/11/10 00:19:07;;;;;;;19.35;8.95;;;2.00;99.90;;;2.73;100.00;101458.19;5075611;28;20143;-78
2021/11/10 00:21:33;;;;;;;14.77;6.97;;;1.90;99.90;;;2.55;100.00;101454.16;5075705;28;20082;-80
2021/11/10 00:23:59;;;;;;;12.50;7.32;;;1.80;99.90;;;2.48;100.00;101451.72;5076111;28;20025;-80
2021/11/10 00:26:25;;;;;;;16.13;8.02;;;1.70;99.90;;;2.44;100.00;101450.63;5057491;28;20535;-80
2021/11/10 00:28:53;;;;;;;16.80;7.75;;;1.70;99.90;;;2.37;100.00;101447.38;5090821;28;20036;-82
2021/11/10 00:31:19;;;;;;;12.65;7.45;;;1.60;99.90;;;2.38;100.00;101451.75;5060173;28;20111;-80
2021/11/10 00:33:46;;;;;;;14.65;6.82;;;1.60;99.90;;;2.35;100.00;101451.50;5058919;28;20021;-79
2021/11/10 00:36:16;;;;;;;16.48;7.38;;;1.60;99.90;;;2.36;100.00;101439.38;5057765;28;20082;-80
2021/11/10 00:38:44;;;;;;;16.38;7.60;;;1.60;99.90;;;2.41;100.00;101445.69;5059106;28;20399;-82
2021/11/10 00:41:10;;;;;;;13.02;7.50;;;1.60;99.90;;;2.44;100.00;101441.56;5040843;28;20079;-80
2021/11/10 00:43:36;;;;;;;12.57;6.43;;;1.60;99.90;;;2.35;100.00;101451.50;5056378;28;20025;-80
2021/11/10 00:46:03;;;;;;;17.20;7.68;;;1.60;99.90;;;2.29;100.00;101450.72;5074424;28;20028;-80
2021/11/10 00:48:29;;;;;;;15.50;7.43;;;1.50;99.90;;;2.28;100.00;101442.75;5039715;28;20043;-79
2021/11/10 00:50:56;;;;;;;12.90;6.93;;;1.60;99.90;;;2.30;100.00;101446.03;5074415;28;20036;-80
2021/11/10 00:53:22;;;;;;;12.63;6.70;;;1.50;99.90;;;2.29;100.00;101441.63;5056284;28;20123;-80
2021/11/10 00:55:47;;;;;;;12.70;6.78;;;1.60;99.90;;;2.26;100.00;101444.94;5056359;28;20060;-80
2021/11/10 00:58:13;;;;;;;11.30;6.30;;;1.50;99.90;;;2.22;100.00;101452.13;5074522;28;20037;-79
2021/11/10 01:00:40;;;;;;;12.52;7.05;;;1.40;99.90;;;2.10;100.00;101450.53;5074357;28;20052;-82
2021/11/10 01:03:08;;;;;;;10.40;6.38;;;1.30;99.90;;;2.06;100.00;101440.34;5074513;28;20052;-80
2021/11/10 01:05:35;;;;;;;14.15;7.65;;;1.30;99.90;;;2.12;100.00;101439.22;5074530;28;20029;-80
2021/11/10 01:08:03;;;;;;;13.20;7.32;;;1.40;99.90;;;2.10;100.00;101430.41;5074736;28;20032;-78
2021/11/10 01:10:31;;;;;;;9.73;6.10;;;1.40;99.90;;;2.10;100.00;101434.00;5036543;28;20039;-81
2021/11/10 01:12:58;;;;;;;16.77;7.57;;;1.40;99.90;;;2.07;100.00;101422.72;5063596;28;20080;-83
2021/11/10 01:15:25;;;;;;;16.25;7.82;;;1.40;99.90;;;2.06;100.00;101432.09;5061753;28;20029;-81
2021/11/10 01:17:51;;;;;;;13.75;7.63;;;1.30;99.90;;;1.97;100.00;101436.53;5056076;28;20051;-81
2021/11/10 01:20:17;;;;;;;11.85;7.20;;;1.20;99.90;;;2.00;100.00;101424.94;5057232;28;20035;-79
2021/11/10 01:22:44;;;;;;;15.30;6.57;;;1.30;99.90;;;2.04;100.00;101421.38;5065388;28;20083;-80
2021/11/10 01:25:12;;;;;;;13.90;6.68;;;1.30;99.90;;;1.92;100.00;101431.06;5040097;28;20090;-81
2021/11/10 01:27:38;;;;;;;11.55;6.85;;;1.20;99.90;;;1.82;100.00;101423.66;5037012;28;20073;-78
2021/11/10 01:30:09;;;;;;;13.98;7.22;;;1.10;99.90;;;1.80;100.00;101419.53;5063874;28;20056;-82
2021/11/10 01:32:36;;;;;;;13.52;7.30;;;1.10;99.90;;;1.86;100.00;101404.66;5025070;28;20029;-80
2021/11/10 01:35:03;;;;;;;11.57;6.90;;;1.10;99.90;;;1.82;100.00;101409.88;5037670;28;20029;-80
2021/11/10 01:37:29;;;;;;;15.60;8.15;;;1.10;99.90;;;1.74;100.00;101399.44;5036312;28;20025;-80
2021/11/10 01:39:56;;;;;;;9.15;6.68;;;1.10;99.90;;;1.75;100.00;101406.59;5053864;28;20025;-80
2021/11/10 01:42:27;;;;;;;14.02;7.40;;;1.00;99.90;;;1.74;100.00;101404.13;5035360;28;20446;-79
2021/11/10 01:44:54;;;;;;;14.68;7.28;;;1.10;99.90;;;1.69;100.00;101402.22;5020990;28;20045;-79
2021/11/10 01:47:20;;;;;;;14.32;7.00;;;1.00;99.90;;;1.67;100.00;101403.63;5035715;28;20032;-78
2021/11/10 01:49:46;;;;;;;17.60;7.40;;;1.00;99.90;;;1.69;100.00;101406.91;5053670;28;20108;-81
2021/11/10 01:52:12;;;;;;;12.02;6.47;;;1.00;99.90;;;1.68;100.00;101402.50;5035907;28;20484;-78
2021/11/10 01:54:40;;;;;;;15.90;7.10;;;1.00;99.90;;;1.69;100.00;101406.91;5053397;28;20519;-80
2021/11/10 01:57:10;;;;;;;17.48;7.28;;;1.00;99.90;;;1.73;100.00;101410.75;5035767;28;20404;-80
2021/11/10 01:59:43;;;;;;;13.38;5.80;;;1.00;99.90;;;1.69;100.00;101406.91;5053493;28;20033;-80
2021/11/10 02:02:22;;;;;;;20.13;7.47;;;1.00;99.90;;;1.64;100.00;101398.66;5052271;28;20032;-79
2021/11/10 02:04:50;;;;;;;11.95;6.28;;;0.90;99.90;;;1.71;100.00;101391.75;5058709;28;20009;-81
2021/11/10 02:07:19;;;;;;;12.00;6.68;;;1.00;99.90;;;1.82;100.00;101392.53;5076193;28;20040;-78
2021/11/10 02:09:49;;;;;;;14.23;6.32;;;1.10;99.90;;;1.91;100.00;101390.84;5087895;28;20051;-80
2021/11/10 02:12:18;;;;;;;14.20;7.45;;;1.10;99.90;;;1.96;100.00;101388.88;5044215;28;20459;-79
2021/11/10 02:14:45;;;;;;;13.02;6.88;;;1.20;99.90;;;2.03;100.00;101385.81;5058646;28;20028;-80
2021/11/10 02:17:20;;;;;;;12.85;6.35;;;1.30;99.90;;;1.98;100.00;101389.44;5058380;28;20475;-78
2021/11/10 02:19:48;;;;;;;11.85;6.30;;;1.30;99.90;;;1.90;100.00;101387.25;5058790;28;20031;-80
2021/11/10 02:22:18;;;;;;;15.63;6.65;;;1.20;99.90;;;1.86;100.00;101388.13;5092642;28;20036;-80
2021/11/10 02:24:44;;;;;;;14.52;7.43;;;1.20;99.90;;;1.88;100.00;101380.38;5093183;28;20055;-79
2021/11/10 02:27:21;;;;;;;11.60;6.35;;;1.20;99.90;;;1.87;100.00;101384.25;5093261;28;20040;-80
2021/11/10 02:29:50;;;;;;;14.88;6.45;;;1.20;99.90;;;1.77;100.00;101370.50;5076083;28;20032;-80
2021/11/10 02:32:18;;;;;;;13.98;6.60;;;1.10;99.90;;;1.69;100.00;101368.34;5058044;28;20036;-80
2021/11/10 02:34:47;;;;;;;15.20;6.88;;;1.00;99.90;;;1.59;100.00;101372.78;5074872;28;20095;-80
2021/11/10 02:37:21;;;;;;;13.77;6.68;;;0.90;99.90;;;1.55;100.00;101382.72;5074550;28;20036;-81
2021/11/10 02:39:50;;;;;;;17.20;6.70;;;0.80;99.90;;;1.45;100.00;101373.66;5077212;28;20553;-80
2021/11/10 02:42:19;;;;;;;13.20;6.82;;;0.70;99.90;;;1.35;100.00;101376.47;5075174;28;20062;-79
2021/11/10 02:44:53;;;;;;;15.57;7.40;;;0.70;99.90;;;1.31;100.00;101370.69;5058565;28;20395;-80
2021/11/10 02:47:20;;;;;;;12.70;6.72;;;0.60;99.90;;;1.36;100.00;101367.91;5075151;28;20391;-78
2021/11/10 02:49:47;;;;;;;13.27;6.57;;;0.60;99.90;;;1.38;100.00;101364.91;5074913;28;20039;-81
2021/11/10 02:52:19;;;;;;;10.43;6.65;;;0.70;99.90;;;1.45;100.00;101368.97;5091728;28;20032;-80
2021/11/10 02:54:54;;;;;;;10.80;6.55;;;0.70;99.90;;;1.52;100.00;101365.94;5074922;28;20032;-82
2021/11/10 02:57:25;;;;;;;20.40;6.57;;;0.80;99.90;;;1.55;100.00;101359.84;5074972;28;20047;-80
2021/11/10 02:59:51;;;;;;;12.32;6.13;;;0.80;99.90;;;1.57;100.00;101363.97;5074125;28;20614;-78
2021/11/10 03:02:27;;;;;;;12.32;6.40;;;0.80;99.90;;;1.61;100.00;101369.75;5074486;28;20497;-79
2021/11/10 03:04:56;;;;;;;12.88;6.70;;;0.90;99.90;;;1.69;100.00;101365.59;5075410;28;20098;-82
2021/11/10 03:07:22;;;;;;;12.55;6.40;;;0.90;99.90;;;1.79;100.00;101360.03;5093302;28;20036;-80
2021/11/10 03:09:50;;;;;;;11.93;6.43;;;1.00;99.90;;;1.87;100.00;101363.03;5060168;28;20104;-77
2021/11/10 03:12:18;;;;;;;15.98;7.20;;;1.10;99.90;;;1.86;100.00;101368.84;5054852;28;20429;-80
2021/11/10 03:14:47;;;;;;;14.88;7.05;;;1.10;99.90;;;1.85;100.00;101372.69;5054260;28;20063;-81
2021/11/10 03:17:18;;;;;;;15.02;6.13;;;1.10;99.90;;;1.83;100.00;101372.16;5073053;28;20379;-80
2021/11/10 03:19:45;;;;;;;15.13;6.22;;;1.10;99.90;;;1.83;100.00;101361.94;5038785;28;20093;-81
2021/11/10 03:22:14;;;;;;;13.43;6.80;;;1.10;99.90;;;1.83;100.00;101361.94;5054956;28;20047;-80
2021/11/10 03:24:41;;;;;;;14.70;6.90;;;1.10;99.90;;;1.83;100.00;101366.66;5054064;28;20549;-81
2021/11/10 03:27:09;;;;;;;12.18;7.10;;;1.10;99.90;;;1.86;100.00;101371.59;5054201;28;20094;-81
2021/11/10 03:29:36;;;;;;;13.25;8.13;;;1.10;99.90;;;1.92;100.00;101370.44;5054290;28;20039;-80
2021/11/10 03:32:07;;;;;;;19.52;8.60;;;1.20;99.90;;;2.00;100.00;101361.56;5054402;28;20039;-79
2021/11/10 03:34:35;;;;;;;20.58;8.45;;;1.20;99.90;;;2.05;100.00;101356.06;5054475;28;20449;-80
2021/11/10 03:37:02;;;;;;;15.32;7.40;;;1.30;99.90;;;2.09;100.00;101359.88;5037950;28;20109;-80
2021/11/10 03:39:28;;;;;;;14.18;7.97;;;1.30;99.90;;;2.16;100.00;101363.13;5054113;28;20116;-82
2021/11/10 03:41:55;;;;;;;15.75;7.65;;;1.40;99.90;;;2.14;100.00;101376.41;5053687;28;20025;-80
2021/11/10 03:44:23;;;;;;;11.82;6.30;;;1.30;99.90;;;2.03;100.00;101378.38;5070414;28;20115;-82
2021/11/10 03:46:49;;;;;;;14.45;7.32;;;1.30;99.90;;;1.87;100.00;101368.53;5037952;28;20037;-82
2021/11/10 03:49:16;;;;;;;13.88;6.53;;;1.20;99.90;;;1.84;100.00;101360.00;5071653;28;20037;-80
2021/11/10 03:51:43;;;;;;;14.27;7.43;;;1.10;99.90;;;1.72;100.00;101349.34;5054088;28;20175;-79
2021/11/10 03:54:09;;;;;;;16.85;7.40;;;1.00;99.90;;;1.67;100.00;101348.53;5072114;28;20173;-80
2021/11/10 03:56:37;;;;;;;16.13;8.25;;;1.00;99.90;;;1.56;100.00;101350.50;5053906;28;20567;-80
2021/11/10 03:59:03;;;;;;;15.02;7.20;;;0.80;99.90;;;1.53;100.00;101348.31;5048511;28;20036;-80
2021/11/10 04:01:29;;;;;;;14.57;7.60;;;0.90;99.90;;;1.62;100.00;101348.53;5093375;28;20541;-81
2021/11/10 04:03:55;;;;;;;12.55;6.55;;;0.90;99.90;;;1.75;100.00;101354.28;5086487;28;20088;-84
2021/11/10 04:06:23;;;;;;;12.90;7.10;;;1.00;99.90;;;1.81;100.00;101347.63;5075888;28;20029;-83
2021/11/10 04:08:51;;;;;;;11.98;6.85;;;1.00;99.90;;;1.78;100.00;101348.19;5061708;28;20038;-78
2021/11/10 04:11:20;;;;;;;11.82;6.25;;;1.00;99.90;;;1.75;100.00;101353.44;5102624;28;20035;-83
2021/11/10 04:13:49;;;;;;;11.70;6.60;;;1.00;99.90;;;1.69;100.00;101349.91;5109158;28;20028;-84
2021/11/10 04:16:20;;;;;;;14.05;7.25;;;0.90;99.90;;;1.66;100.00;101353.22;5091984;28;20039;-83
2021/11/10 04:18:52;;;;;;;13.73;6.68;;;0.90;99.90;;;1.62;100.00;101356.81;5102697;28;20118;-84
2021/11/10 04:21:20;;;;;;;13.88;6.90;;;0.80;99.90;;;1.56;100.00;101345.00;5101751;22;20028;-88
2021/11/10 04:23:50;;;;;;;17.30;7.78;;;0.80;99.90;;;1.51;100.00;101350.50;5061515;28;20029;-88
2021/11/10 04:26:17;;;;;;;11.48;6.60;;;0.80;99.90;;;1.44;100.00;101358.25;5060776;28;20032;-86
2021/11/10 04:28:43;;;;;;;13.38;6.50;;;0.70;99.90;;;1.41;100.00;101358.81;5061105;28;20106;-88
2021/11/10 04:31:11;;;;;;;14.80;7.35;;;0.70;99.90;;;1.40;100.00;101349.75;5062301;28;20504;-86
2021/11/10 04:33:37;;;;;;;19.83;7.00;;;0.70;99.90;;;1.41;100.00;101354.13;5061202;28;20297;-84
2021/11/10 04:36:05;;;;;;;14.18;7.50;;;0.60;99.90;;;1.42;100.00;101353.03;5073755;22;20106;-82
2021/11/10 04:38:32;;;;;;;12.55;6.55;;;0.70;99.90;;;1.40;100.00;101359.91;5057965;28;20033;-80
2021/11/10 04:40:58;;;;;;;11.20;6.47;;;0.60;99.90;;;1.40;100.00;101352.50;5054010;28;20087;-78
2021/11/10 04:43:24;;;;;;;13.48;6.50;;;0.60;99.90;;;1.36;100.00;101353.31;5037933;28;20059;-82
2021/11/10 04:45:57;;;;;;;19.70;7.00;;;0.60;99.90;;;1.31;100.00;101359.69;5037499;28;20037;-80
2021/11/10 04:48:26;;;;;;;14.00;7.03;;;0.60;99.90;;;1.26;100.00;101362.44;5062653;22;20029;-80
2021/11/10 04:50:51;;;;;;;13.63;7.40;;;0.50;99.90;;;1.19;100.00;101359.13;5056194;28;20060;-81
2021/11/10 04:53:17;;;;;;;13.07;6.28;;;0.50;99.90;;;1.15;100.00;101363.56;5055851;28;20469;-80
2021/11/10 04:55:43;;;;;;;13.75;7.00;;;0.40;99.90;;;1.10;100.00;101362.72;5057309;28;20468;-79
2021/11/10 04:58:10;;;;;;;15.90;8.18;;;0.40;99.90;;;1.09;100.00;101361.94;5039373;28;20025;-82
2021/11/10 05:00:36;;;;;;;15.55;7.50;;;0.40;99.90;;;1.08;100.00;101351.19;5058680;28;20051;-80
2021/11/10 05:03:02;;;;;;;11.93;6.65;;;0.40;99.90;;;1.02;100.00;101340.22;5057206;28;20025;-82
2021/11/10 05:05:28;;;;;;;13.98;7.22;;;0.30;99.90;;;1.02;100.00;101348.47;5040735;28;20550;-80
2021/11/10 05:07:54;;;;;;;13.77;7.90;;;0.30;99.90;;;1.02;100.00;101340.22;5040191;28;20036;-81
2021/11/10 05:10:20;;;;;;;14.35;7.25;;;0.30;99.90;;;1.04;100.00;101345.41;5057590;28;20035;-80
2021/11/10 05:12:46;;;;;;;14.23;7.20;;;0.30;99.90;;;1.05;100.00;101349.81;5056055;28;20055;-82
2021/11/10 05:15:12;;;;;;;19.23;7.75;;;0.30;99.90;;;1.04;100.00;101342.66;5057004;28;20488;-78
2021/11/10 05:17:39;;;;;;;19.33;8.65;;;0.40;99.90;;;1.06;100.00;101334.94;5057132;28;20481;-79
2021/11/10 05:20:06;;;;;;;20.80;8.10;;;0.40;99.90;;;1.19;100.00;101336.31;5039908;28;20021;-82
2021/11/10 05:22:33;;;;;;;17.75;7.35;;;0.50;99.90;;;1.30;100.00;101329.66;5058028;28;20115;-80
2021/11/10 05:25:00;;;;;;;13.60;7.55;;;0.50;99.90;;;1.32;100.00;101332.97;5056604;28;20029;-79
2021/11/10 05:27:26;;;;;;;11.90;6.22;;;0.60;99.90;;;1.26;100.00;101329.41;5038711;28;20127;-81
2021/11/10 05:29:52;;;;;;;18.02;7.35;;;0.50;99.90;;;1.24;100.00;101325.28;5038995;28;20028;-81
2021/11/10 05:32:18;;;;;;;11.95;6.90;;;0.50;99.90;;;1.19;100.00;101325.31;5056482;28;20025;-81
2021/11/10 05:34:44;;;;;;;13.70;7.60;;;0.50;99.90;;;1.22;100.00;101322.00;5041104;28;20044;-78
2021/11/10 05:37:12;;;;;;;16.52;6.43;;;0.50;99.90;;;1.30;100.00;101319.50;5055785;28;20046;-79
2021/11/10 05:39:37;;;;;;;12.98;6.57;;;0.50;99.90;;;1.34;100.00;101315.09;5057214;28;20037;-78
2021/11/10 05:42:04;;;;;;;13.98;6.80;;;0.50;99.90;;;1.45;100.00;101321.34;5040599;28;20087;-81
2021/11/10 05:44:32;;;;;;;13.95;6.63;;;0.60;99.90;;;1.42;100.00;101330.16;5057582;28;20063;-80
2021/11/10 05:46:59;;;;;;;15.82;7.78;;;0.60;99.90;;;1.29;100.00;101353.59;5058279;28;20108;-80
2021/11/10 05:49:25;;;;;;;14.98;7.25;;;0.60;99.90;;;1.19;100.00;101359.13;5038761;28;20032;-81
2021/11/10 05:51:50;;;;;;;16.60;6.70;;;0.50;99.90;;;1.14;100.00;101363.84;5038141;28;20421;-80
2021/11/10 05:54:17;;;;;;;16.30;6.97;;;0.40;99.90;;;1.10;100.00;101360.81;5038545;28;20452;-79
2021/11/10 05:56:46;;;;;;;20.38;8.00;;;0.40;99.90;;;1.14;100.00;101361.91;5039635;28;20029;-81
2021/11/10 05:59:12;;;;;;;19.98;7.75;;;0.40;99.90;;;1.21;100.00;101376.22;5057760;28;20039;-81
2021/11/10 06:01:38;;;;;;;16.38;7.15;;;0.50;99.90;;;1.29;100.00;101377.56;5061998;28;20033;-81
2021/11/10 06:04:07;;;;;;;19.42;7.88;;;0.60;99.90;;;1.45;100.00;101366.22;5061001;28;20094;-80
2021/11/10 06:06:37;;;;;;;19.77;7.38;;;0.70;99.90;;;1.80;100.00;101350.69;5060247;28;20275;-81
2021/11/10 06:09:02;;;;;;;17.48;7.00;;;1.00;99.90;;;1.95;100.00;101356.09;5053668;28;20496;-82
2021/11/10 06:11:28;;;;;;;19.50;6.85;;;1.10;99.90;;;1.96;100.00;101364.06;5023143;28;20057;-82
2021/11/10 06:13:54;;;;;;;20.42;8.90;;;1.10;99.90;;;1.88;100.00;101361.94;5026707;28;20366;-82
2021/11/10 06:16:20;;;;;;;15.50;7.10;;;1.10;99.90;;;1.88;100.00;101353.66;5030070;28;20033;-80
2021/11/10 06:18:46;;;;;;;16.75;6.38;;;1.10;99.90;;;1.60;100.00;101368.13;5047814;28;20109;-79
2021/11/10 06:21:14;;;;;;;11.93;6.32;;;0.90;99.90;;;1.42;100.00;101369.53;5039080;28;20052;-79
2021/11/10 06:23:42;;;;;;;15.13;6.57;;;0.70;99.90;;;1.38;100.00;101360.19;5039159;28;20052;-80
2021/11/10 06:26:08;;;;;;;20.48;7.20;;;0.70;99.90;;;1.45;100.00;101370.91;5038870;28;20479;-78
2021/11/10 06:28:35;;;;;;;17.73;7.57;;;0.70;99.90;;;1.45;100.00;101362.66;5037637;28;20029;-79
2021/11/10 06:31:01;;;;;;;11.60;6.72;;;0.70;99.90;;;1.45;100.00;101355.22;5037682;28;20136;-79
2021/11/10 06:33:28;;;;;;;12.00;7.00;;;0.70;99.90;;;1.54;100.00;101353.53;5037210;28;20079;-79
2021/11/10 06:35:54;;;;;;;17.08;7.05;;;0.80;99.90;;;1.38;100.00;101354.69;5020299;28;20035;-79
2021/11/10 06:38:20;;;;;;;15.50;7.55;;;0.70;99.90;;;1.30;100.00;101370.94;5036788;28;20029;-81
2021/11/10 06:40:46;;;;;;;10.20;5.95;;;0.60;99.90;;;1.21;100.00;101373.47;5037051;28;20099;-81
2021/11/10 06:43:12;;;;;;;19.10;8.48;;;0.60;99.90;;;1.23;100.00;101360.22;5019694;28;20128;-80
2021/11/10 06:45:38;;;;;;;15.75;7.07;;;0.50;99.90;;;1.27;100.00;101366.84;5019457;28;20069;-79
2021/11/10 06:48:04;;;;;;;17.02;6.82;;;0.50;99.90;;;1.29;100.00;101366.53;5019542;28;20030;-82
2021/11/10 06:50:30;;;;;;;22.70;8.27;;;0.60;99.90;;;1.33;100.00;101362.97;5037415;28;20037;-82
2021/11/10 06:52:56;;;;;;;20.15;8.25;;;0.60;99.90;;;1.41;100.00;101367.09;5036100;28;20044;-82
2021/11/10 06:55:22;;;;;;;19.48;7.40;;;0.70;99.90;;;1.37;100.00;101377.81;5036586;28;20102;-81
2021/11/10 06:57:48;;;;;;;16.20;6.97;;;0.60;99.90;;;1.35;100.00;101373.72;5036019;28;20033;-80
2021/11/10 07:00:16;;;;;;;14.25;7.43;;;0.60;99.90;;;1.32;100.00;101377.81;5036269;28;20040;-81
2021/11/10 07:02:43;;;;;;;15.15;7.25;;;0.60;99.90;;;1.27;100.00;101371.50;5037408;28;20546;-81
2021/11/10 07:05:10;;;;;;;19.13;7.63;;;0.60;99.90;;;1.23;100.00;101370.41;5019543;28;20112;-82
2021/11/10 07:07:36;;;;;;;20.05;9.02;;;0.60;99.90;;;1.25;100.00;101380.06;5019608;28;20041;-79
2021/11/10 07:10:05;;;;;;;24.17;8.75;;;0.50;99.90;;;1.32;100.00;101365.97;5035228;28;20434;-81
2021/11/10 07:12:31;;;;;;;21.95;9.57;;;0.60;99.90;;;1.35;100.00;101370.97;5039263;28;20033;-82
2021/11/10 07:14:57;;;;;;;26.08;11.23;;;0.60;99.90;;;1.32;100.00;101371.47;5039142;28;20404;-79
2021/11/10 07:17:23;;;;;;;26.23;9.57;;;0.60;99.90;;;1.39;100.00;101363.75;5058465;28;20041;-79
2021/11/10 07:19:53;;;;;;;27.38;9.52;;;0.70;99.90;;;1.58;100.00;101375.81;5060009;28;20080;-82
2021/11/10 07:22:20;;;;;;;20.52;8.63;;;0.80;99.90;;;1.64;100.00;101380.19;5044569;28;20029;-81
2021/11/10 07:24:46;;;;;;;19.13;7.93;;;0.80;99.90;;;1.66;100.00;101382.69;5067056;28;20029;-82
2021/11/10 07:27:13;;;;;;;19.05;8.90;;;0.90;99.90;;;1.69;100.00;101393.97;5055253;28;20029;-81
2021/11/10 07:29:40;;;;;;;18.08;8.48;;;0.90;99.90;;;1.77;100.00;101392.53;5054286;28;20025;-79
2021/11/10 07:32:07;;;;;;;25.23;8.70;;;1.00;99.90;;;1.85;100.00;101401.06;5055087;28;20047;-78
2021/11/10 07:34:34;;;;;;;18.83;8.13;;;1.00;99.90;;;1.93;100.00;101400.47;5071899;28;20033;-78
2021/11/10 07:37:00;;;;;;;14.73;7.38;;;1.10;99.90;;;1.99;100.00;101407.59;5052867;28;20061;-82
2021/11/10 07:39:28;;;;;;;15.02;7.43;;;1.20;99.90;;;2.05;100.00;101402.91;5069855;28;20476;-82
2021/11/10 07:41:55;;;;;;;16.25;8.38;;;1.20;99.90;;;2.08;100.00;101400.41;5066126;28;20025;-82
2021/11/10 07:44:22;;;;;;;18.02;7.60;;;1.30;99.90;;;2.12;100.00;101395.13;5046272;28;20025;-81
2021/11/10 07:47:06;;;;;;;15.27;7.15;;;1.30;99.90;;;2.16;100.00;101398.13;5047832;28;20075;-81
2021/11/10 07:49:32;;;;;;;13.85;7.88;;;1.30;99.90;;;2.20;100.00;101401.97;5045729;28;20041;-82
2021/11/10 07:51:59;;;;;;;21.13;7.50;;;1.30;99.90;;;2.21;100.00;101409.97;5063812;28;20124;-81
2021/11/10 07:54:27;;;;;;;18.05;6.78;;;1.40;99.90;;;2.20;100.00;101416.59;5063778;28;20065;-79
2021/11/10 07:56:53;;;;;;;13.68;7.00;;;1.30;99.90;;;2.30;100.00;101421.22;5062865;28;20195;-81
2021/11/10 07:59:19;;;;;;;15.02;7.35;;;1.40;99.90;;;2.53;100.00;101415.03;5044753;28;20055;-81
2021/11/10 08:01:44;;;;;;;16.83;7.20;;;1.60;99.90;;;2.81;100.00;101424.47;5044268;28;20033;-81
2021/11/10 08:04:10;;;;;;;15.82;6.70;;;1.80;99.90;;;2.92;100.00;101413.03;5062270;28;20408;-81
2021/11/10 08:06:36;;;;;;;12.98;7.18;;;1.90;99.90;;;3.00;100.00;101409.69;5063591;28;20044;-79
2021/11/10 08:09:02;;;;;;;18.45;8.48;;;2.00;99.90;;;3.03;100.00;101422.06;5064104;28;20029;-81
2021/11/10 08:11:28;;;;;;;16.30;6.72;;;2.10;99.90;;;2.95;100.00;101420.78;5044928;28;20033;-81
2021/11/10 08:13:54;;;;;;;12.05;6.72;;;2.10;99.90;;;2.95;100.00;101429.06;5063966;28;20052;-79
2021/11/10 08:16:20;;;;;;;21.58;8.68;;;2.10;99.90;;;3.11;100.00;101413.97;5064945;28;20029;-79
2021/11/10 08:18:46;;;;;;;16.33;7.07;;;2.20;99.90;;;3.34;100.00;101414.34;5062153;28;20025;-81
2021/11/10 08:21:12;;;;;;;15.02;7.50;;;2.40;99.90;;;3.57;100.00;101425.41;5062660;28;20021;-82
2021/11/10 08:23:38;;;;;;;15.50;6.90;;;2.60;99.90;;;3.67;100.00;101414.25;5062999;28;20032;-81
2021/11/10 08:26:04;;;;;;;12.10;6.20;;;2.70;99.90;;;3.79;100.00;101419.34;5044906;28;20025;-77
2021/11/10 08:28:30;;;;;;;13.05;6.68;;;2.80;99.90;;;3.87;100.00;101423.41;5045730;28;20128;-80
2021/11/10 08:30:57;;;;;;;13.25;6.07;;;2.90;99.90;;;3.92;100.00;101423.34;5046258;28;20037;-81
2021/11/10 08:33:24;;;;;;;15.50;7.35;;;3.00;99.90;;;3.96;100.00;101418.88;5063745;28;20511;-80
2021/11/10 08:35:50;;;;;;;16.05;6.93;;;3.00;99.90;;;4.11;100.00;101429.75;5062595;28;20171;-83
2021/11/10 08:38:18;;;;;;;14.10;7.55;;;3.20;99.90;;;4.46;100.00;101434.81;5065022;28;20098;-82
2021/11/10 08:40:45;;;;;;;13.98;6.63;;;3.40;99.90;;;4.85;100.00;101439.22;5047108;28;20039;-82
2021/11/10 08:43:12;;;;;;;11.93;6.80;;;3.70;99.90;;;5.15;100.00;101433.97;5065818;28;20025;-84
2021/11/10 08:45:43;;;;;;;18.85;6.60;;;4.00;99.90;;;5.55;100.00;101435.22;5065239;28;20104;-82
2021/11/10 08:48:11;;;;;;;12.55;7.00;;;4.30;99.90;;;6.15;100.00;101438.75;5045977;28;20071;-81
2021/11/10 08:50:43;;;;;;;13.88;7.07;;;4.90;99.90;;;6.65;100.00;101439.56;5044388;28;20048;-80
2021/11/10 08:53:17;;;;;;;10.13;6.60;;;5.30;99.90;;;7.01;100.00;101430.41;5061523;28;20389;-79
2021/11/10 08:55:48;;;;;;;13.50;6.30;;;5.70;99.90;;;7.12;98.29;101420.69;5062679;28;20037;-81
2021/11/10 08:58:15;;;;;;;9.10;6.03;;;5.90;99.90;;;7.07;97.47;101418.84;5044696;28;20126;-81
2021/11/10 09:00:42;;;;;;;17.00;6.65;;;5.90;99.90;;;7.12;97.45;101423.47;5061315;28;20082;-80
2021/11/10 09:03:09;;;;;;;14.88;6.63;;;6.00;99.90;;;7.17;97.26;101415.00;5041545;28;20103;-83
2021/11/10 09:05:35;;;;;;;11.40;5.90;;;6.10;99.90;;;7.22;97.22;101409.31;5061301;28;20028;-80
2021/11/10 09:08:03;;;;;;;11.43;6.93;;;6.10;99.90;;;7.26;97.00;101416.69;5061583;28;20020;-82
2021/11/10 09:10:33;;;;;;;12.05;6.90;;;6.10;99.90;;;7.24;97.25;101420.94;5042396;28;20051;-80
2021/11/10 09:13:00;;;;;;;11.40;6.43;;;6.10;99.90;;;7.30;96.94;101414.09;5061473;28;20488;-80
2021/11/10 09:15:27;;;;;;;13.77;7.43;;;6.10;99.90;;;7.38;96.41;101413.34;5061610;28;20032;-79
2021/11/10 09:17:53;;;;;;;16.60;7.25;;;6.20;99.90;;;7.58;96.21;101423.09;5057193;28;20377;-80
2021/11/10 09:20:25;;;;;;;16.63;7.13;;;6.40;99.90;;;7.93;95.14;101420.13;5042029;28;20031;-81
2021/11/10 09:22:56;;;;;;;15.07;7.55;;;6.70;99.90;;;8.34;93.13;101413.41;5007220;28;20036;-81
2021/11/10 09:25:28;;;;;;;15.50;6.90;;;7.00;99.90;;;8.97;91.21;101416.38;5020026;28;20029;-78
2021/11/10 09:27:58;;;;;;;13.80;7.60;;;7.60;99.90;;;9.64;88.97;101423.28;5023096;28;20038;-80
2021/11/10 09:30:27;;;;;;;17.40;8.57;;;8.10;99.90;;;10.28;85.40;101419.25;5040966;28;20057;-81
2021/11/10 09:32:56;;;;;;;15.68;7.53;;;8.70;99.90;;;10.77;81.34;101426.00;5024811;28;20369;-81
2021/11/10 09:35:25;;;;;;;14.43;6.30;;;9.20;99.90;;;10.45;80.11;101424.75;5040428;28;20109;-82
2021/11/10 09:37:55;;;;;;;15.10;6.68;;;9.20;99.90;;;10.64;77.43;101427.06;5025171;28;20040;-82
2021/11/10 09:40:31;;;;;;;9.98;6.18;;;9.40;99.90;;;10.68;75.37;101425.25;5041250;28;20056;-81
2021/11/10 09:43:00;;;;;;;11.93;5.75;;;9.50;99.90;;;10.86;76.42;101423.13;5028186;28;20095;-82
2021/11/10 09:45:33;;;;;;;13.63;6.25;;;9.60;99.90;;;10.80;74.41;101411.34;5058689;28;20036;-82
2021/11/10 09:48:04;;;;;;;9.52;5.55;;;9.70;99.90;;;10.69;75.07;101414.88;5043186;28;20040;-81
2021/11/10 09:50:33;;;;;;;13.45;5.65;;;9.70;99.90;;;10.73;75.29;101413.84;5043482;28;20029;-82
2021/11/10 09:53:01;;;;;;;11.05;5.10;;;9.70;99.90;;;11.01;75.11;101428.09;5061417;28;20032;-81
2021/11/10 09:55:30;;;;;;;10.02;6.38;;;9.90;99.90;;;11.36;73.41;101421.03;5043476;28;20141;-81
2021/11/10 09:58:00;;;;;;;11.02;5.60;;;10.10;99.90;;;11.50;71.30;101417.88;5044962;28;20056;-82
2021/11/10 10:00:41;;;;;;;12.48;5.38;;;10.30;99.90;;;11.85;72.56;101399.56;5044329;28;20029;-83
2021/11/10 10:03:08;;;;;;;8.18;5.53;;;10.50;99.90;;;12.15;72.05;101406.59;5071758;28;20048;-79
2021/11/10 10:05:36;;;;;;;9.77;5.22;;;10.90;99.90;;;12.58;71.43;101413.53;5057026;28;20025;-78
2021/11/10 10:08:05;;;;;;;9.75;5.40;;;11.20;99.90;;;12.99;68.29;101413.19;5049998;28;20037;-82
2021/11/10 10:10:34;;;;;;;7.50;5.47;;;11.50;99.90;;;13.41;65.81;101408.00;5039120;28;20035;-81
2021/11/10 10:13:03;;;;;;;10.90;6.05;;;11.80;99.90;;;13.67;64.58;101399.06;5022463;28;20052;-78
2021/11/10 10:15:35;;;;;;;10.55;4.90;;;12.00;99.90;;;13.94;64.44;101400.16;5037368;28;20044;-81